sensor_id;sensor_type;location;lat;lon;timestamp;P1;durP1;ratioP1;P2;durP2;ratioP2
13487;SDS011;6816;48.506;9.050;2023-06-24T00:01:43;5.13;;;4.70;;
13487;SDS011;6816;48.506;9.050;2023-06-24T00:04:43;5.53;;;5.03;;
13487;SDS011;6816;48.506;9.050;2023-06-24T00:07:44;5.80;;;5.30;;
13487;SDS011;6816;48.506;9.050;2023-06-24T00:10:48;5.90;;;5.30;;
13487;SDS011;6816;48.506;9.050;2023-06-24T00:13:49;5.80;;;5.25;;
13487;SDS011;6816;48.506;9.050;2023-06-24T00:16:50;5.43;;;4.93;;
13487;SDS011;6816;48.506;9.050;2023-06-24T00:19:51;5.03;;;4.63;;
13487;SDS011;6816;48.506;9.050;2023-06-24T00:22:54;5.73;;;5.13;;
13487;SDS011;6816;48.506;9.050;2023-06-24T00:25:55;5.40;;;4.90;;
13487;SDS011;6816;48.506;9.050;2023-06-24T00:28:56;5.40;;;4.90;;
13487;SDS011;6816;48.506;9.050;2023-06-24T00:31:57;5.90;;;5.30;;
13487;SDS011;6816;48.506;9.050;2023-06-24T00:34:58;5.87;;;5.27;;
13487;SDS011;6816;48.506;9.050;2023-06-24T00:38:00;5.80;;;4.97;;
13487;SDS011;6816;48.506;9.050;2023-06-24T00:41:00;5.73;;;4.80;;
13487;SDS011;6816;48.506;9.050;2023-06-24T00:44:01;6.00;;;5.40;;
13487;SDS011;6816;48.506;9.050;2023-06-24T00:47:02;6.13;;;5.10;;
13487;SDS011;6816;48.506;9.050;2023-06-24T00:50:03;5.60;;;5.10;;
13487;SDS011;6816;48.506;9.050;2023-06-24T00:53:04;5.50;;;5.00;;
13487;SDS011;6816;48.506;9.050;2023-06-24T00:56:04;6.20;;;5.00;;
13487;SDS011;6816;48.506;9.050;2023-06-24T00:59:05;5.70;;;5.10;;
13487;SDS011;6816;48.506;9.050;2023-06-24T01:02:07;5.63;;;5.13;;
13487;SDS011;6816;48.506;9.050;2023-06-24T01:05:08;5.63;;;5.13;;
13487;SDS011;6816;48.506;9.050;2023-06-24T01:08:10;5.10;;;4.70;;
13487;SDS011;6816;48.506;9.050;2023-06-24T01:11:15;5.30;;;4.80;;
13487;SDS011;6816;48.506;9.050;2023-06-24T01:14:16;5.50;;;5.00;;
13487;SDS011;6816;48.506;9.050;2023-06-24T01:17:22;5.67;;;5.17;;
13487;SDS011;6816;48.506;9.050;2023-06-24T01:33:42;5.47;;;4.97;;
13487;SDS011;6816;48.506;9.050;2023-06-24T01:37:25;5.93;;;5.43;;
13487;SDS011;6816;48.506;9.050;2023-06-24T01:40:31;5.80;;;5.30;;
13487;SDS011;6816;48.506;9.050;2023-06-24T01:43:37;6.53;;;5.93;;
13487;SDS011;6816;48.506;9.050;2023-06-24T01:46:42;5.50;;;5.10;;
13487;SDS011;6816;48.506;9.050;2023-06-24T01:49:46;5.67;;;5.10;;
13487;SDS011;6816;48.506;9.050;2023-06-24T01:52:48;5.57;;;5.07;;
13487;SDS011;6816;48.506;9.050;2023-06-24T01:55:53;6.30;;;5.70;;
13487;SDS011;6816;48.506;9.050;2023-06-24T01:58:55;5.53;;;5.03;;
13487;SDS011;6816;48.506;9.050;2023-06-24T02:01:58;6.37;;;5.17;;
13487;SDS011;6816;48.506;9.050;2023-06-24T02:05:01;5.77;;;5.27;;
13487;SDS011;6816;48.506;9.050;2023-06-24T02:08:04;5.80;;;5.20;;
13487;SDS011;6816;48.506;9.050;2023-06-24T02:11:08;6.13;;;5.53;;
13487;SDS011;6816;48.506;9.050;2023-06-24T02:14:10;5.73;;;5.23;;
13487;SDS011;6816;48.506;9.050;2023-06-24T02:17:12;6.00;;;5.50;;
13487;SDS011;6816;48.506;9.050;2023-06-24T02:20:15;6.40;;;5.47;;
13487;SDS011;6816;48.506;9.050;2023-06-24T02:23:18;6.20;;;5.70;;
13487;SDS011;6816;48.506;9.050;2023-06-24T02:26:21;5.90;;;5.40;;
13487;SDS011;6816;48.506;9.050;2023-06-24T02:29:25;5.53;;;5.10;;
13487;SDS011;6816;48.506;9.050;2023-06-24T02:32:27;6.27;;;5.63;;
13487;SDS011;6816;48.506;9.050;2023-06-24T02:35:28;6.00;;;5.50;;
13487;SDS011;6816;48.506;9.050;2023-06-24T02:38:28;5.97;;;5.47;;
13487;SDS011;6816;48.506;9.050;2023-06-24T02:41:29;5.67;;;5.13;;
13487;SDS011;6816;48.506;9.050;2023-06-24T02:44:30;6.17;;;5.20;;
13487;SDS011;6816;48.506;9.050;2023-06-24T02:47:30;5.87;;;5.27;;
13487;SDS011;6816;48.506;9.050;2023-06-24T02:50:33;5.60;;;5.10;;
13487;SDS011;6816;48.506;9.050;2023-06-24T02:53:34;5.83;;;5.33;;
13487;SDS011;6816;48.506;9.050;2023-06-24T02:56:36;6.50;;;5.00;;
13487;SDS011;6816;48.506;9.050;2023-06-24T02:59:41;6.07;;;4.60;;
13487;SDS011;6816;48.506;9.050;2023-06-24T03:02:42;5.60;;;5.10;;
13487;SDS011;6816;48.506;9.050;2023-06-24T03:05:44;5.03;;;4.60;;
13487;SDS011;6816;48.506;9.050;2023-06-24T03:08:48;5.77;;;4.80;;
13487;SDS011;6816;48.506;9.050;2023-06-24T03:11:50;7.00;;;4.80;;
13487;SDS011;6816;48.506;9.050;2023-06-24T03:14:51;5.20;;;4.70;;
13487;SDS011;6816;48.506;9.050;2023-06-24T03:17:51;5.10;;;4.47;;
13487;SDS011;6816;48.506;9.050;2023-06-24T03:20:52;5.80;;;5.30;;
13487;SDS011;6816;48.506;9.050;2023-06-24T03:23:53;5.93;;;5.10;;
13487;SDS011;6816;48.506;9.050;2023-06-24T03:26:54;5.80;;;5.20;;
13487;SDS011;6816;48.506;9.050;2023-06-24T03:29:56;5.60;;;4.97;;
13487;SDS011;6816;48.506;9.050;2023-06-24T03:32:57;5.30;;;4.80;;
13487;SDS011;6816;48.506;9.050;2023-06-24T03:35:58;6.33;;;5.40;;
13487;SDS011;6816;48.506;9.050;2023-06-24T03:38:58;5.40;;;4.90;;
13487;SDS011;6816;48.506;9.050;2023-06-24T03:41:59;8.20;;;5.40;;
13487;SDS011;6816;48.506;9.050;2023-06-24T03:44:59;6.23;;;5.50;;
13487;SDS011;6816;48.506;9.050;2023-06-24T03:48:00;8.50;;;5.23;;
13487;SDS011;6816;48.506;9.050;2023-06-24T03:51:01;5.90;;;5.30;;
13487;SDS011;6816;48.506;9.050;2023-06-24T03:54:01;5.77;;;5.23;;
13487;SDS011;6816;48.506;9.050;2023-06-24T03:57:02;6.13;;;5.53;;
13487;SDS011;6816;48.506;9.050;2023-06-24T04:00:03;5.53;;;5.03;;
13487;SDS011;6816;48.506;9.050;2023-06-24T04:03:16;5.63;;;5.13;;
13487;SDS011;6816;48.506;9.050;2023-06-24T04:06:19;5.57;;;5.07;;
13487;SDS011;6816;48.506;9.050;2023-06-24T04:09:20;5.67;;;5.17;;
13487;SDS011;6816;48.506;9.050;2023-06-24T04:12:22;6.97;;;5.50;;
13487;SDS011;6816;48.506;9.050;2023-06-24T04:15:22;6.60;;;5.33;;
13487;SDS011;6816;48.506;9.050;2023-06-24T04:18:23;6.13;;;5.60;;
13487;SDS011;6816;48.506;9.050;2023-06-24T04:21:24;5.60;;;5.10;;
13487;SDS011;6816;48.506;9.050;2023-06-24T04:24:25;5.73;;;5.13;;
13487;SDS011;6816;48.506;9.050;2023-06-24T04:27:26;7.63;;;5.60;;
13487;SDS011;6816;48.506;9.050;2023-06-24T04:30:26;7.23;;;5.47;;
13487;SDS011;6816;48.506;9.050;2023-06-24T04:33:27;5.90;;;5.10;;
13487;SDS011;6816;48.506;9.050;2023-06-24T04:36:28;6.20;;;5.60;;
13487;SDS011;6816;48.506;9.050;2023-06-24T04:39:29;6.07;;;5.50;;
13487;SDS011;6816;48.506;9.050;2023-06-24T04:42:29;6.20;;;5.60;;
13487;SDS011;6816;48.506;9.050;2023-06-24T04:45:30;6.30;;;5.70;;
13487;SDS011;6816;48.506;9.050;2023-06-24T04:48:31;6.37;;;5.77;;
13487;SDS011;6816;48.506;9.050;2023-06-24T04:51:31;6.33;;;5.70;;
13487;SDS011;6816;48.506;9.050;2023-06-24T04:54:32;7.93;;;5.90;;
13487;SDS011;6816;48.506;9.050;2023-06-24T04:57:33;7.43;;;5.97;;
13487;SDS011;6816;48.506;9.050;2023-06-24T05:00:34;10.77;;;6.30;;
13487;SDS011;6816;48.506;9.050;2023-06-24T05:03:35;6.47;;;5.80;;
13487;SDS011;6816;48.506;9.050;2023-06-24T05:06:35;6.73;;;5.57;;
13487;SDS011;6816;48.506;9.050;2023-06-24T05:09:36;6.00;;;5.40;;
13487;SDS011;6816;48.506;9.050;2023-06-24T05:12:37;6.10;;;5.60;;
13487;SDS011;6816;48.506;9.050;2023-06-24T05:15:38;6.27;;;5.67;;
13487;SDS011;6816;48.506;9.050;2023-06-24T05:18:39;6.30;;;5.70;;
13487;SDS011;6816;48.506;9.050;2023-06-24T05:21:39;7.30;;;6.03;;
13487;SDS011;6816;48.506;9.050;2023-06-24T05:24:40;7.20;;;6.25;;
13487;SDS011;6816;48.506;9.050;2023-06-24T05:27:41;7.13;;;6.43;;
13487;SDS011;6816;48.506;9.050;2023-06-24T05:30:44;6.60;;;6.00;;
13487;SDS011;6816;48.506;9.050;2023-06-24T05:33:46;6.40;;;5.90;;
13487;SDS011;6816;48.506;9.050;2023-06-24T05:36:46;7.30;;;6.60;;
13487;SDS011;6816;48.506;9.050;2023-06-24T05:39:47;6.95;;;6.25;;
13487;SDS011;6816;48.506;9.050;2023-06-24T05:42:48;6.32;;;5.82;;
13487;SDS011;6816;48.506;9.050;2023-06-24T05:45:49;6.53;;;5.97;;
13487;SDS011;6816;48.506;9.050;2023-06-24T05:48:49;6.78;;;6.13;;
13487;SDS011;6816;48.506;9.050;2023-06-24T05:51:50;6.50;;;5.90;;
13487;SDS011;6816;48.506;9.050;2023-06-24T05:54:50;6.22;;;5.72;;
13487;SDS011;6816;48.506;9.050;2023-06-24T05:57:51;7.03;;;6.32;;
13487;SDS011;6816;48.506;9.050;2023-06-24T06:00:51;6.95;;;6.35;;
13487;SDS011;6816;48.506;9.050;2023-06-24T06:03:52;6.53;;;5.85;;
13487;SDS011;6816;48.506;9.050;2023-06-24T06:06:53;7.00;;;6.40;;
13487;SDS011;6816;48.506;9.050;2023-06-24T06:09:53;6.97;;;6.15;;
13487;SDS011;6816;48.506;9.050;2023-06-24T06:12:55;6.90;;;6.20;;
13487;SDS011;6816;48.506;9.050;2023-06-24T06:15:55;7.25;;;5.93;;
13487;SDS011;6816;48.506;9.050;2023-06-24T06:18:56;8.35;;;5.53;;
13487;SDS011;6816;48.506;9.050;2023-06-24T06:21:57;7.38;;;6.35;;
13487;SDS011;6816;48.506;9.050;2023-06-24T06:24:57;6.38;;;5.78;;
13487;SDS011;6816;48.506;9.050;2023-06-24T06:27:58;7.72;;;6.40;;
13487;SDS011;6816;48.506;9.050;2023-06-24T06:30:59;7.07;;;6.38;;
13487;SDS011;6816;48.506;9.050;2023-06-24T06:33:59;5.85;;;5.35;;
13487;SDS011;6816;48.506;9.050;2023-06-24T06:37:01;7.30;;;5.63;;
13487;SDS011;6816;48.506;9.050;2023-06-24T06:40:02;6.40;;;5.85;;
13487;SDS011;6816;48.506;9.050;2023-06-24T06:43:03;7.15;;;6.05;;
13487;SDS011;6816;48.506;9.050;2023-06-24T06:46:04;6.82;;;6.22;;
13487;SDS011;6816;48.506;9.050;2023-06-24T06:49:04;6.15;;;5.57;;
13487;SDS011;6816;48.506;9.050;2023-06-24T06:52:05;6.43;;;5.85;;
13487;SDS011;6816;48.506;9.050;2023-06-24T06:55:06;6.45;;;5.88;;
13487;SDS011;6816;48.506;9.050;2023-06-24T06:58:07;6.22;;;5.63;;
13487;SDS011;6816;48.506;9.050;2023-06-24T07:01:07;6.38;;;5.82;;
13487;SDS011;6816;48.506;9.050;2023-06-24T07:04:08;6.22;;;5.63;;
13487;SDS011;6816;48.506;9.050;2023-06-24T07:07:09;6.15;;;5.43;;
13487;SDS011;6816;48.506;9.050;2023-06-24T07:10:09;6.00;;;5.47;;
13487;SDS011;6816;48.506;9.050;2023-06-24T07:13:10;5.50;;;5.10;;
13487;SDS011;6816;48.506;9.050;2023-06-24T07:16:11;6.13;;;5.25;;
13487;SDS011;6816;48.506;9.050;2023-06-24T07:19:11;6.20;;;4.95;;
13487;SDS011;6816;48.506;9.050;2023-06-24T07:22:13;5.47;;;4.97;;
13487;SDS011;6816;48.506;9.050;2023-06-24T07:25:14;5.45;;;4.95;;
13487;SDS011;6816;48.506;9.050;2023-06-24T07:28:14;4.97;;;4.50;;
13487;SDS011;6816;48.506;9.050;2023-06-24T07:31:15;4.72;;;4.32;;
13487;SDS011;6816;48.506;9.050;2023-06-24T07:34:16;4.63;;;4.10;;
13487;SDS011;6816;48.506;9.050;2023-06-24T07:37:16;4.38;;;3.97;;
13487;SDS011;6816;48.506;9.050;2023-06-24T07:40:17;4.50;;;4.10;;
13487;SDS011;6816;48.506;9.050;2023-06-24T07:43:18;3.75;;;3.45;;
13487;SDS011;6816;48.506;9.050;2023-06-24T07:46:19;4.00;;;3.60;;
13487;SDS011;6816;48.506;9.050;2023-06-24T07:49:20;3.97;;;3.67;;
13487;SDS011;6816;48.506;9.050;2023-06-24T07:52:20;4.30;;;3.92;;
13487;SDS011;6816;48.506;9.050;2023-06-24T07:55:21;4.05;;;3.40;;
13487;SDS011;6816;48.506;9.050;2023-06-24T07:58:21;3.72;;;3.35;;
13487;SDS011;6816;48.506;9.050;2023-06-24T08:01:22;3.25;;;2.97;;
13487;SDS011;6816;48.506;9.050;2023-06-24T08:04:23;3.85;;;3.55;;
13487;SDS011;6816;48.506;9.050;2023-06-24T08:07:23;4.30;;;3.65;;
13487;SDS011;6816;48.506;9.050;2023-06-24T08:10:24;4.47;;;3.70;;
13487;SDS011;6816;48.506;9.050;2023-06-24T08:13:24;4.80;;;3.55;;
13487;SDS011;6816;48.506;9.050;2023-06-24T08:16:25;3.28;;;3.08;;
13487;SDS011;6816;48.506;9.050;2023-06-24T08:19:26;3.53;;;3.22;;
13487;SDS011;6816;48.506;9.050;2023-06-24T08:22:26;3.42;;;3.13;;
13487;SDS011;6816;48.506;9.050;2023-06-24T08:25:27;4.13;;;3.83;;
13487;SDS011;6816;48.506;9.050;2023-06-24T08:28:27;3.67;;;3.38;;
13487;SDS011;6816;48.506;9.050;2023-06-24T08:31:28;4.40;;;3.17;;
13487;SDS011;6816;48.506;9.050;2023-06-24T08:34:28;3.83;;;3.50;;
13487;SDS011;6816;48.506;9.050;2023-06-24T08:37:29;3.30;;;3.10;;
13487;SDS011;6816;48.506;9.050;2023-06-24T08:40:30;3.67;;;3.38;;
13487;SDS011;6816;48.506;9.050;2023-06-24T08:43:31;3.55;;;3.25;;
13487;SDS011;6816;48.506;9.050;2023-06-24T08:46:31;3.80;;;3.50;;
13487;SDS011;6816;48.506;9.050;2023-06-24T08:49:38;3.80;;;3.50;;
13487;SDS011;6816;48.506;9.050;2023-06-24T08:52:53;3.50;;;3.20;;
13487;SDS011;6816;48.506;9.050;2023-06-24T08:55:54;3.50;;;3.20;;
13487;SDS011;6816;48.506;9.050;2023-06-24T08:58:57;3.65;;;3.35;;
13487;SDS011;6816;48.506;9.050;2023-06-24T09:01:58;3.10;;;2.90;;
13487;SDS011;6816;48.506;9.050;2023-06-24T09:04:58;3.83;;;3.15;;
13487;SDS011;6816;48.506;9.050;2023-06-24T09:07:59;3.70;;;3.40;;
13487;SDS011;6816;48.506;9.050;2023-06-24T09:10:59;3.47;;;3.17;;
13487;SDS011;6816;48.506;9.050;2023-06-24T09:14:00;2.75;;;2.55;;
13487;SDS011;6816;48.506;9.050;2023-06-24T09:17:01;2.90;;;2.70;;
13487;SDS011;6816;48.506;9.050;2023-06-24T09:20:03;2.97;;;2.78;;
13487;SDS011;6816;48.506;9.050;2023-06-24T09:23:05;3.00;;;2.72;;
13487;SDS011;6816;48.506;9.050;2023-06-24T09:26:09;3.75;;;3.45;;
13487;SDS011;6816;48.506;9.050;2023-06-24T09:29:12;3.03;;;2.83;;
13487;SDS011;6816;48.506;9.050;2023-06-24T09:32:14;2.92;;;2.72;;
13487;SDS011;6816;48.506;9.050;2023-06-24T09:35:18;3.33;;;3.13;;
13487;SDS011;6816;48.506;9.050;2023-06-24T09:38:31;2.88;;;2.67;;
13487;SDS011;6816;48.506;9.050;2023-06-24T09:41:36;3.13;;;2.88;;
13487;SDS011;6816;48.506;9.050;2023-06-24T09:44:39;3.42;;;3.13;;
13487;SDS011;6816;48.506;9.050;2023-06-24T09:47:40;2.90;;;2.70;;
13487;SDS011;6816;48.506;9.050;2023-06-24T09:50:41;2.90;;;2.70;;
13487;SDS011;6816;48.506;9.050;2023-06-24T09:53:41;2.92;;;2.70;;
13487;SDS011;6816;48.506;9.050;2023-06-24T09:56:45;3.17;;;2.60;;
13487;SDS011;6816;48.506;9.050;2023-06-24T09:59:48;2.40;;;2.20;;
13487;SDS011;6816;48.506;9.050;2023-06-24T10:02:52;2.60;;;2.40;;
13487;SDS011;6816;48.506;9.050;2023-06-24T10:05:54;2.85;;;2.60;;
13487;SDS011;6816;48.506;9.050;2023-06-24T10:08:55;3.22;;;2.80;;
13487;SDS011;6816;48.506;9.050;2023-06-24T10:11:56;2.90;;;2.70;;
13487;SDS011;6816;48.506;9.050;2023-06-24T10:14:58;2.85;;;2.58;;
13487;SDS011;6816;48.506;9.050;2023-06-24T10:18:03;3.20;;;2.40;;
13487;SDS011;6816;48.506;9.050;2023-06-24T10:21:24;2.45;;;2.25;;
13487;SDS011;6816;48.506;9.050;2023-06-24T10:24:50;2.42;;;2.30;;
13487;SDS011;6816;48.506;9.050;2023-06-24T10:27:53;2.58;;;2.38;;
13487;SDS011;6816;48.506;9.050;2023-06-24T10:30:54;2.15;;;2.05;;
13487;SDS011;6816;48.506;9.050;2023-06-24T10:33:58;2.60;;;2.40;;
13487;SDS011;6816;48.506;9.050;2023-06-24T10:37:18;2.30;;;2.20;;
13487;SDS011;6816;48.506;9.050;2023-06-24T10:40:33;2.70;;;2.50;;
13487;SDS011;6816;48.506;9.050;2023-06-24T10:43:38;2.47;;;2.28;;
13487;SDS011;6816;48.506;9.050;2023-06-24T10:46:39;2.17;;;2.00;;
13487;SDS011;6816;48.506;9.050;2023-06-24T10:49:39;2.30;;;2.15;;
13487;SDS011;6816;48.506;9.050;2023-06-24T10:52:47;1.88;;;1.77;;
13487;SDS011;6816;48.506;9.050;2023-06-24T10:55:49;2.58;;;2.38;;
13487;SDS011;6816;48.506;9.050;2023-06-24T10:58:56;2.50;;;2.30;;
13487;SDS011;6816;48.506;9.050;2023-06-24T11:01:56;2.47;;;2.28;;
13487;SDS011;6816;48.506;9.050;2023-06-24T11:04:58;2.50;;;2.30;;
13487;SDS011;6816;48.506;9.050;2023-06-24T11:08:00;2.25;;;2.08;;
13487;SDS011;6816;48.506;9.050;2023-06-24T11:11:00;2.17;;;2.00;;
13487;SDS011;6816;48.506;9.050;2023-06-24T11:14:02;2.40;;;2.08;;
13487;SDS011;6816;48.506;9.050;2023-06-24T11:17:03;2.20;;;2.00;;
13487;SDS011;6816;48.506;9.050;2023-06-24T11:20:08;2.13;;;2.03;;
13487;SDS011;6816;48.506;9.050;2023-06-24T11:23:09;2.42;;;2.22;;
13487;SDS011;6816;48.506;9.050;2023-06-24T11:26:10;2.38;;;2.15;;
13487;SDS011;6816;48.506;9.050;2023-06-24T11:29:11;2.35;;;2.20;;
13487;SDS011;6816;48.506;9.050;2023-06-24T11:32:12;2.50;;;2.30;;
13487;SDS011;6816;48.506;9.050;2023-06-24T11:35:12;1.77;;;1.67;;
13487;SDS011;6816;48.506;9.050;2023-06-24T11:38:15;2.08;;;1.98;;
13487;SDS011;6816;48.506;9.050;2023-06-24T11:41:16;2.60;;;2.40;;
13487;SDS011;6816;48.506;9.050;2023-06-24T11:44:21;2.47;;;2.25;;
13487;SDS011;6816;48.506;9.050;2023-06-24T11:47:24;2.75;;;2.55;;
13487;SDS011;6816;48.506;9.050;2023-06-24T11:50:27;2.58;;;2.38;;
13487;SDS011;6816;48.506;9.050;2023-06-24T11:53:40;2.97;;;2.42;;
13487;SDS011;6816;48.506;9.050;2023-06-24T11:56:51;2.47;;;2.28;;
13487;SDS011;6816;48.506;9.050;2023-06-24T11:59:52;2.35;;;2.15;;
13487;SDS011;6816;48.506;9.050;2023-06-24T12:02:53;2.05;;;1.95;;
13487;SDS011;6816;48.506;9.050;2023-06-24T12:05:55;1.90;;;1.80;;
13487;SDS011;6816;48.506;9.050;2023-06-24T12:08:56;2.20;;;2.00;;
13487;SDS011;6816;48.506;9.050;2023-06-24T12:11:56;2.13;;;2.03;;
13487;SDS011;6816;48.506;9.050;2023-06-24T12:14:57;2.80;;;2.30;;
13487;SDS011;6816;48.506;9.050;2023-06-24T12:17:58;2.25;;;2.05;;
13487;SDS011;6816;48.506;9.050;2023-06-24T12:20:58;2.33;;;2.13;;
13487;SDS011;6816;48.506;9.050;2023-06-24T12:23:59;2.10;;;2.00;;
13487;SDS011;6816;48.506;9.050;2023-06-24T12:27:00;1.85;;;1.75;;
13487;SDS011;6816;48.506;9.050;2023-06-24T12:30:01;2.15;;;2.05;;
13487;SDS011;6816;48.506;9.050;2023-06-24T12:33:02;2.40;;;2.20;;
13487;SDS011;6816;48.506;9.050;2023-06-24T12:36:03;2.03;;;1.88;;
13487;SDS011;6816;48.506;9.050;2023-06-24T12:39:04;1.83;;;1.73;;
13487;SDS011;6816;48.506;9.050;2023-06-24T12:42:05;2.50;;;2.15;;
13487;SDS011;6816;48.506;9.050;2023-06-24T12:45:06;1.90;;;1.80;;
13487;SDS011;6816;48.506;9.050;2023-06-24T12:48:07;2.10;;;1.90;;
13487;SDS011;6816;48.506;9.050;2023-06-24T12:51:08;2.50;;;2.30;;
13487;SDS011;6816;48.506;9.050;2023-06-24T12:54:08;1.98;;;1.88;;
13487;SDS011;6816;48.506;9.050;2023-06-24T12:57:09;2.15;;;1.98;;
13487;SDS011;6816;48.506;9.050;2023-06-24T13:00:10;2.40;;;2.20;;
13487;SDS011;6816;48.506;9.050;2023-06-24T13:03:11;2.55;;;1.92;;
13487;SDS011;6816;48.506;9.050;2023-06-24T13:06:11;1.90;;;1.80;;
13487;SDS011;6816;48.506;9.050;2023-06-24T13:09:14;2.28;;;2.10;;
13487;SDS011;6816;48.506;9.050;2023-06-24T13:12:14;2.28;;;2.08;;
13487;SDS011;6816;48.506;9.050;2023-06-24T13:15:15;2.15;;;2.05;;
13487;SDS011;6816;48.506;9.050;2023-06-24T13:18:16;2.10;;;2.00;;
13487;SDS011;6816;48.506;9.050;2023-06-24T13:21:17;2.30;;;2.10;;
13487;SDS011;6816;48.506;9.050;2023-06-24T13:24:18;2.17;;;2.08;;
13487;SDS011;6816;48.506;9.050;2023-06-24T13:27:19;1.88;;;1.77;;
13487;SDS011;6816;48.506;9.050;2023-06-24T13:30:19;2.58;;;1.90;;
13487;SDS011;6816;48.506;9.050;2023-06-24T13:33:20;2.60;;;2.40;;
13487;SDS011;6816;48.506;9.050;2023-06-24T13:36:30;2.08;;;1.90;;
13487;SDS011;6816;48.506;9.050;2023-06-24T13:39:35;2.35;;;1.95;;
13487;SDS011;6816;48.506;9.050;2023-06-24T13:42:35;1.90;;;1.80;;
13487;SDS011;6816;48.506;9.050;2023-06-24T13:45:36;2.22;;;2.03;;
13487;SDS011;6816;48.506;9.050;2023-06-24T13:48:36;2.42;;;2.20;;
13487;SDS011;6816;48.506;9.050;2023-06-24T13:51:37;2.05;;;1.95;;
13487;SDS011;6816;48.506;9.050;2023-06-24T13:54:39;1.98;;;1.88;;
13487;SDS011;6816;48.506;9.050;2023-06-24T13:57:39;2.15;;;1.98;;
13487;SDS011;6816;48.506;9.050;2023-06-24T14:00:40;2.38;;;2.17;;
13487;SDS011;6816;48.506;9.050;2023-06-24T14:03:41;2.78;;;2.58;;
13487;SDS011;6816;48.506;9.050;2023-06-24T14:06:42;2.13;;;2.00;;
13487;SDS011;6816;48.506;9.050;2023-06-24T14:09:43;2.33;;;2.13;;
13487;SDS011;6816;48.506;9.050;2023-06-24T14:12:54;1.90;;;1.80;;
13487;SDS011;6816;48.506;9.050;2023-06-24T14:15:54;2.17;;;1.95;;
13487;SDS011;6816;48.506;9.050;2023-06-24T14:18:55;2.50;;;2.30;;
13487;SDS011;6816;48.506;9.050;2023-06-24T14:21:56;2.25;;;2.08;;
13487;SDS011;6816;48.506;9.050;2023-06-24T14:24:57;1.90;;;1.80;;
13487;SDS011;6816;48.506;9.050;2023-06-24T14:27:58;2.40;;;2.20;;
13487;SDS011;6816;48.506;9.050;2023-06-24T14:30:58;2.17;;;1.98;;
13487;SDS011;6816;48.506;9.050;2023-06-24T14:33:59;2.00;;;1.90;;
13487;SDS011;6816;48.506;9.050;2023-06-24T14:37:00;2.42;;;2.03;;
13487;SDS011;6816;48.506;9.050;2023-06-24T14:40:00;2.30;;;2.10;;
13487;SDS011;6816;48.506;9.050;2023-06-24T14:43:01;2.28;;;2.10;;
13487;SDS011;6816;48.506;9.050;2023-06-24T14:46:01;2.00;;;1.90;;
13487;SDS011;6816;48.506;9.050;2023-06-24T14:49:02;1.90;;;1.80;;
13487;SDS011;6816;48.506;9.050;2023-06-24T14:52:03;2.13;;;2.03;;
13487;SDS011;6816;48.506;9.050;2023-06-24T14:55:04;2.10;;;2.00;;
13487;SDS011;6816;48.506;9.050;2023-06-24T14:58:05;2.30;;;2.10;;
13487;SDS011;6816;48.506;9.050;2023-06-24T15:01:05;3.65;;;2.00;;
13487;SDS011;6816;48.506;9.050;2023-06-24T15:04:06;2.10;;;2.00;;
13487;SDS011;6816;48.506;9.050;2023-06-24T15:07:06;2.30;;;2.10;;
13487;SDS011;6816;48.506;9.050;2023-06-24T15:10:07;2.40;;;2.20;;
13487;SDS011;6816;48.506;9.050;2023-06-24T15:13:08;2.30;;;2.20;;
13487;SDS011;6816;48.506;9.050;2023-06-24T15:16:09;2.42;;;2.00;;
13487;SDS011;6816;48.506;9.050;2023-06-24T15:19:09;2.63;;;2.10;;
13487;SDS011;6816;48.506;9.050;2023-06-24T15:22:10;2.53;;;2.33;;
13487;SDS011;6816;48.506;9.050;2023-06-24T15:25:10;2.17;;;1.98;;
13487;SDS011;6816;48.506;9.050;2023-06-24T15:28:11;2.40;;;2.20;;
13487;SDS011;6816;48.506;9.050;2023-06-24T15:31:12;2.83;;;2.60;;
13487;SDS011;6816;48.506;9.050;2023-06-24T15:34:12;2.20;;;2.08;;
13487;SDS011;6816;48.506;9.050;2023-06-24T15:37:13;2.70;;;2.40;;
13487;SDS011;6816;48.506;9.050;2023-06-24T15:40:16;2.70;;;2.50;;
13487;SDS011;6816;48.506;9.050;2023-06-24T15:43:17;2.22;;;2.05;;
13487;SDS011;6816;48.506;9.050;2023-06-24T15:46:18;2.50;;;2.30;;
13487;SDS011;6816;48.506;9.050;2023-06-24T15:49:19;2.42;;;2.22;;
13487;SDS011;6816;48.506;9.050;2023-06-24T15:52:19;2.10;;;2.00;;
13487;SDS011;6816;48.506;9.050;2023-06-24T15:55:20;2.17;;;2.08;;
13487;SDS011;6816;48.506;9.050;2023-06-24T15:58:20;2.30;;;2.20;;
13487;SDS011;6816;48.506;9.050;2023-06-24T16:01:21;2.58;;;2.13;;
13487;SDS011;6816;48.506;9.050;2023-06-24T16:04:22;2.17;;;2.08;;
13487;SDS011;6816;48.506;9.050;2023-06-24T16:07:22;2.60;;;2.40;;
13487;SDS011;6816;48.506;9.050;2023-06-24T16:10:23;2.38;;;2.17;;
13487;SDS011;6816;48.506;9.050;2023-06-24T16:13:23;2.30;;;2.20;;
13487;SDS011;6816;48.506;9.050;2023-06-24T16:16:24;2.10;;;2.00;;
13487;SDS011;6816;48.506;9.050;2023-06-24T16:19:24;2.90;;;2.15;;
13487;SDS011;6816;48.506;9.050;2023-06-24T16:22:28;2.20;;;2.10;;
13487;SDS011;6816;48.506;9.050;2023-06-24T16:25:28;2.20;;;2.10;;
13487;SDS011;6816;48.506;9.050;2023-06-24T16:28:29;2.38;;;2.22;;
13487;SDS011;6816;48.506;9.050;2023-06-24T16:31:30;2.40;;;2.20;;
13487;SDS011;6816;48.506;9.050;2023-06-24T16:34:30;2.47;;;2.28;;
13487;SDS011;6816;48.506;9.050;2023-06-24T16:37:34;2.35;;;2.15;;
13487;SDS011;6816;48.506;9.050;2023-06-24T16:40:34;2.40;;;2.20;;
13487;SDS011;6816;48.506;9.050;2023-06-24T16:43:35;2.65;;;2.45;;
13487;SDS011;6816;48.506;9.050;2023-06-24T16:46:35;2.40;;;2.20;;
13487;SDS011;6816;48.506;9.050;2023-06-24T16:49:36;2.55;;;2.35;;
13487;SDS011;6816;48.506;9.050;2023-06-24T16:52:37;2.30;;;2.20;;
13487;SDS011;6816;48.506;9.050;2023-06-24T16:55:37;2.50;;;2.30;;
13487;SDS011;6816;48.506;9.050;2023-06-24T16:58:39;2.17;;;2.08;;
13487;SDS011;6816;48.506;9.050;2023-06-24T17:01:39;2.33;;;2.13;;
13487;SDS011;6816;48.506;9.050;2023-06-24T17:04:40;2.72;;;2.53;;
13487;SDS011;6816;48.506;9.050;2023-06-24T17:07:40;2.67;;;2.47;;
13487;SDS011;6816;48.506;9.050;2023-06-24T17:10:41;2.58;;;2.38;;
13487;SDS011;6816;48.506;9.050;2023-06-24T17:13:41;2.40;;;2.30;;
13487;SDS011;6816;48.506;9.050;2023-06-24T17:16:42;2.55;;;2.30;;
13487;SDS011;6816;48.506;9.050;2023-06-24T17:19:43;3.03;;;2.70;;
13487;SDS011;6816;48.506;9.050;2023-06-24T17:22:43;3.15;;;2.55;;
13487;SDS011;6816;48.506;9.050;2023-06-24T17:25:44;2.40;;;2.20;;
13487;SDS011;6816;48.506;9.050;2023-06-24T17:28:44;3.10;;;2.90;;
13487;SDS011;6816;48.506;9.050;2023-06-24T17:31:45;2.42;;;2.22;;
13487;SDS011;6816;48.506;9.050;2023-06-24T17:34:45;2.75;;;2.55;;
13487;SDS011;6816;48.506;9.050;2023-06-24T17:37:46;2.50;;;2.30;;
13487;SDS011;6816;48.506;9.050;2023-06-24T17:40:47;2.65;;;2.45;;
13487;SDS011;6816;48.506;9.050;2023-06-24T17:43:47;3.03;;;2.72;;
13487;SDS011;6816;48.506;9.050;2023-06-24T17:46:48;2.38;;;2.20;;
13487;SDS011;6816;48.506;9.050;2023-06-24T17:49:48;2.70;;;2.50;;
13487;SDS011;6816;48.506;9.050;2023-06-24T17:52:49;3.47;;;3.17;;
13487;SDS011;6816;48.506;9.050;2023-06-24T17:55:49;3.90;;;2.75;;
13487;SDS011;6816;48.506;9.050;2023-06-24T17:58:50;2.80;;;2.60;;
13487;SDS011;6816;48.506;9.050;2023-06-24T18:01:51;3.88;;;2.33;;
13487;SDS011;6816;48.506;9.050;2023-06-24T18:04:51;2.78;;;2.58;;
13487;SDS011;6816;48.506;9.050;2023-06-24T18:07:52;2.72;;;2.30;;
13487;SDS011;6816;48.506;9.050;2023-06-24T18:10:53;2.55;;;2.35;;
13487;SDS011;6816;48.506;9.050;2023-06-24T18:13:53;2.47;;;2.28;;
13487;SDS011;6816;48.506;9.050;2023-06-24T18:16:54;2.88;;;2.42;;
13487;SDS011;6816;48.506;9.050;2023-06-24T18:19:54;2.78;;;2.53;;
13487;SDS011;6816;48.506;9.050;2023-06-24T18:22:55;2.70;;;2.50;;
13487;SDS011;6816;48.506;9.050;2023-06-24T18:25:56;2.30;;;2.13;;
13487;SDS011;6816;48.506;9.050;2023-06-24T18:28:56;2.45;;;2.25;;
13487;SDS011;6816;48.506;9.050;2023-06-24T18:31:58;2.80;;;2.60;;
13487;SDS011;6816;48.506;9.050;2023-06-24T18:34:59;2.92;;;2.67;;
13487;SDS011;6816;48.506;9.050;2023-06-24T18:37:59;7.00;;;6.38;;
13487;SDS011;6816;48.506;9.050;2023-06-24T18:41:00;5.07;;;4.68;;
13487;SDS011;6816;48.506;9.050;2023-06-24T18:44:01;3.28;;;3.03;;